AirNav   Air Wisconsin pilot careers
 
 934 users online  

58VA Walnut Hill Airport
Calverton, Virginia, USA

GOING TO CALVERTON?


FAA INFORMATION EFFECTIVE 24 MAY 2018

Location

FAA Identifier: 58VA
Lat/Long: 38-35-42.4380N / 077-38-45.9630W
38-35.707300N / 077-38.766050W
38.5951217 / -77.6461008
(estimated)
Elevation: 285 ft. / 87 m (estimated)
Variation: 08W (1980)
From city: 3 miles SE of CALVERTON, VA
Time zone: UTC -4 (UTC -5 during Standard Time)
Zip code: 20119

Airport Operations

Airport use: Private use. Permission required prior to landing
Activation date: 11/1986
Control tower: no
ARTCC: WASHINGTON CENTER
FSS: LEESBURG FLIGHT SERVICE STATION
Attendance: IREG
Wind indicator: yes
Segmented circle: no

Airport Communications

WX AWOS-3 at HWY (3 nm W): 120.350 (540-788-4078)
WX AWOS-3PT at HEF (10 nm NE): PHONE 703-361-6160
WX AWOS-3 at CJR (11 nm SW): 119.325 (540-727-0523)
WX AWOS-3 at RMN (15 nm SE): 126.325 (540-657-8283)

Nearby radio navigation aids

VOR radial/distance  VOR name  Freq  Var
CSNr111/10.7CASANOVA VORTAC116.3006W
BRVr327/20.8BROOKE VORTAC114.5009W
AMLr210/22.0ARMEL VOR/DME113.5008W
LDNr127/30.5LINDEN VORTAC114.3006W
DCAr250/32.6WASHINGTON VOR/DME111.0009W
ADWr261/38.7ANDREWS VORTAC113.1010W

 
NDB name  Hdg/Dist  Freq  Var  ID
NAILR065/14.835110WMSQ -- ... --.-
SHANNON345/21.823710WEZF . --.. ..-.
GOODWIN LAKE166/23.222708WGDX --. -.. -..-
DAVEE270/25.422309WDAA -.. .- .-
OXONN262/30.733211WDCA -.. -.-. .-
GEORGETOWN240/31.632309WGTN --. - -.
CAVERNS108/39.224509WLUA .-.. ..- .-

Airport Services

Runway Information

Runway 18/36

Dimensions: 2490 x 50 ft. / 759 x 15 m
Surface: turf
RUNWAY 18  RUNWAY 36
Traffic pattern: leftleft
Displaced threshold: 500 ft.200 ft.
Obstructions: 40 ft. trees, 70 ft. from runway70 ft. trees, 600 ft. from runway

Airport Ownership and Management from official FAA records

Ownership: Privately-owned
Owner: WALNUT HILL FARM LLC
10593 SHENANDOAH PATH
CATLETT, VA 20119
Phone 540-788-4452
Manager: JANICE L. WILEY
10593 SHENANDOAH PATH
CATLETT, VA 22019
Phone 540-788-4452

Additional Remarks

A40 CONES OUTLINE LANDING AREA.

Instrument Procedures

There are no published instrument procedures at 58VA.

Some nearby airports with instrument procedures:

KHWY - Warrenton-Fauquier Airport (3 nm W)
KHEF - Manassas Regional Airport/Harry P. Davis Field (10 nm NE)
KCJR - Culpeper Regional Airport (11 nm SW)
KRMN - Stafford Regional Airport (15 nm SE)
KNYG - Quantico Marine Corps Airfield / Turner Field (17 nm E)
 
Loc | Ops | Rwys | IFR | FBO | Links
Com | Nav | Svcs | Stats | Notes

AirNav Hotels Sweepstakes
 
Area around 58VA (Walnut Hill Airport)
 
Road maps at: MapQuest Bing Google
 
Aerial photo
WARNING: Photo may not be current or correct
Aerial photo of 58VA (Walnut Hill Airport)
Photo taken 26-Jun-2011
looking north.

Do you have a better or more recent aerial photo of Walnut Hill Airport that you would like to share? If so, please send us your photo.

 
Sectional chart

 
Airport distance calculator
Flying to Walnut Hill Airport? Find the distance to fly.

From to 58VA

Sunrise and sunset
Times for 26-May-2018
 Local
(UTC-4)
 Zulu
(UTC)
Morning civil twilight05:2109:21
Sunrise05:5209:52
Sunset20:2300:23
Evening civil twilight20:5400:54

Current date and time
Zulu (UTC)  26-May-2018 17:39:11
Local (UTC-4)  26-May-2018 13:39:11
 
METAR
KHWY 
3nm W 
261715Z AUTO 18004KT 10SM CLR 31/19 A2987 RMK AO2 T03110189
KHEF 
9nm NE 
261656Z VRB04KT 10SM CLR 30/21 A2987 RMK AO2 SLP122 T03000211 PNO $
KRMN 
15nm SE 
261715Z AUTO 20003KT 10SM CLR 30/23 A2991 RMK AO2 T03030227
KNYG 
18nm E 
261656Z AUTO 17010KT 10SM CLR 27/24 A2987 RMK AO2 SLP116 T02720239
TAF
KNYG 
18nm E 
2615/2715 22009KT 9999 SCT015 BKN050 OVC100 QNH2983INS TEMPO 2619/2700 VRB15G35KT 1600 +TSRA BR BKN005CB OVC010 530004 BECMG 2700/2702 VRB06KT 8000 -RA BR BKN010 OVC025 500000 QNH2985INS FM270700 VRB06KT 9999 BKN045 OVC060 QNH2988INS T30/2620Z T20/2708Z LAST NO AMD AFT 2615 NEXT 2806
KIAD 
22nm NE 
261444Z 2615/2718 21007KT P6SM SCT100 BKN200 FM261800 21008G16KT P6SM VCTS BKN050CB FM262200 21007KT P6SM BKN050 FM270800 VRB03KT 5SM BR SCT080 FM271200 21004KT P6SM SCT080 FM271700 22006KT P6SM VCTS BKN050CB
NOTAMs
Click for the latest NOTAMs
NOTAMs are issued by the DoD/FAA and will open in a separate window not controlled by AirNav.

 

 
 

Would you like to see your business listed on this page?

 If your business provides an interesting product or service to pilots, flight crews, aircraft, or users of the Walnut Hill Airport, you should consider listing it here.  To start the listing process, click on the button below
 
Add a business
 

Other Pages about Walnut Hill Airport

Update a link
 
Copyright © AirNav, LLC. All rights reserved. Privacy Policy  Contact